Time;durP1;ratioP1;P1;durP2;ratioP2;P2;SDS_P1;SDS_P2;PMS_P1;PMS_P2;Temp;Humidity;BMP_temperature;BMP_pressure;BME280_temperature;BME280_humidity;BME280_pressure;Samples;Min_cycle;Max_cycle;Signal;HPM_P1;HPM_P2
2023/06/27 00:01:43;;;;;;;8.60;6.27;;;;;;;18.58;100.00;94583.19;5110618;28;20208;-44
2023/06/27 00:04:10;;;;;;;7.13;6.47;;;;;;;18.56;100.00;94567.03;5110101;28;20599;-44
2023/06/27 00:06:40;;;;;;;7.23;6.40;;;;;;;18.52;100.00;94569.22;5110762;28;20193;-46
2023/06/27 00:09:09;;;;;;;5.83;5.30;;;;;;;18.52;100.00;94569.22;5110308;28;20228;-45
2023/06/27 00:11:36;;;;;;;6.60;5.80;;;;;;;18.52;100.00;94570.97;5110487;28;20228;-45
2023/06/27 00:14:05;;;;;;;13.50;6.63;;;;;;;18.42;100.00;94560.16;5110242;28;20193;-45
2023/06/27 00:16:33;;;;;;;7.57;6.63;;;;;;;18.48;100.00;94568.00;5110395;28;20188;-44
2023/06/27 00:19:04;;;;;;;6.87;6.20;;;;;;;18.46;100.00;94556.22;5109944;28;20188;-44
2023/06/27 00:21:31;;;;;;;7.23;5.90;;;;;;;18.47;100.00;94561.19;5110130;28;20189;-44
2023/06/27 00:23:59;;;;;;;9.13;6.03;;;;;;;18.48;100.00;94565.41;5110222;28;20192;-46
2023/06/27 00:26:26;;;;;;;6.83;5.97;;;;;;;18.51;100.00;94566.78;5110199;28;20193;-44
2023/06/27 00:28:52;;;;;;;9.37;5.53;;;;;;;18.46;100.00;94556.22;5109922;28;20305;-42
2023/06/27 00:31:21;;;;;;;7.10;6.50;;;;;;;18.43;100.00;94565.13;5110201;28;20653;-44
2023/06/27 00:33:47;;;;;;;10.93;6.37;;;;;;;18.42;100.00;94570.53;5110071;28;20258;-44
2023/06/27 00:36:15;;;;;;;6.57;5.47;;;;;;;18.38;100.00;94564.13;5110463;28;20197;-44
2023/06/27 00:38:42;;;;;;;8.10;5.67;;;;;;;18.37;100.00;94565.91;5110158;28;20197;-45
2023/06/27 00:41:09;;;;;;;12.50;5.83;;;;;;;18.34;100.00;94560.31;5110135;28;20193;-44
2023/06/27 00:43:35;;;;;;;5.80;5.27;;;;;;;18.33;100.00;94556.13;5110543;28;20200;-43
2023/06/27 00:46:04;;;;;;;8.50;5.73;;;;;;;18.32;100.00;94559.69;5110121;28;20201;-45
2023/06/27 00:48:33;;;;;;;6.43;5.83;;;;;;;18.32;100.00;94557.91;5110254;28;20185;-44
2023/06/27 00:51:01;;;;;;;8.07;6.07;;;;;;;18.20;100.00;94534.31;5109908;28;20285;-44
2023/06/27 00:53:28;;;;;;;7.80;5.60;;;;;;;18.25;100.00;94547.50;5109910;28;20193;-44
2023/06/27 00:55:55;;;;;;;8.17;5.90;;;;;;;18.31;100.00;94556.31;5109767;28;20192;-43
2023/06/27 00:58:22;;;;;;;7.80;5.97;;;;;;;18.28;100.00;94559.28;5110120;28;20196;-43
2023/06/27 01:00:49;;;;;;;7.40;5.57;;;;;;;18.11;100.00;94526.91;5109773;28;20548;-45
2023/06/27 01:03:16;;;;;;;6.00;5.40;;;;;;;18.30;100.00;94559.88;5109810;28;20181;-44
2023/06/27 01:05:44;;;;;;;5.93;5.37;;;;;;;18.27;100.00;94560.28;5109937;28;20181;-44
2023/06/27 01:08:18;;;;;;;6.40;5.50;;;;;;;18.28;100.00;94562.66;5109831;28;20186;-44
2023/06/27 01:10:50;;;;;;;13.97;5.53;;;;;;;18.27;100.00;94566.25;5109794;28;20197;-44
2023/06/27 01:13:22;;;;;;;5.87;5.27;;;;;;;18.27;100.00;94555.09;5109976;28;20193;-45
2023/06/27 01:15:49;;;;;;;10.40;5.73;;;;;;;18.00;100.00;94517.84;5109451;28;20200;-44
2023/06/27 01:18:19;;;;;;;5.13;4.63;;;;;;;18.24;100.00;94558.84;5109781;28;20197;-44
2023/06/27 01:20:49;;;;;;;8.13;5.00;;;;;;;18.21;100.00;94555.81;5109898;28;20181;-44
2023/06/27 01:23:23;;;;;;;6.17;4.87;;;;;;;18.20;100.00;94546.47;5109875;28;20579;-44
2023/06/27 01:25:52;;;;;;;5.83;5.10;;;;;;;18.23;100.00;94559.84;5109819;28;20245;-44
2023/06/27 01:28:19;;;;;;;6.47;5.30;;;;;;;18.21;100.00;94553.25;5109847;28;20232;-44
2023/06/27 01:30:46;;;;;;;5.63;5.00;;;;;;;18.23;100.00;94553.88;5109456;28;20189;-43
2023/06/27 01:33:18;;;;;;;8.80;5.10;;;;;;;18.25;100.00;94557.84;5109885;28;20189;-44
2023/06/27 01:35:54;;;;;;;6.07;4.97;;;;;;;18.22;100.00;94552.25;5111635;28;20233;-44
2023/06/27 01:38:28;;;;;;;7.47;5.27;;;;;;;18.23;100.00;94559.03;5113617;28;20192;-43
2023/06/27 01:40:59;;;;;;;5.37;4.37;;;;;;;18.02;100.00;94526.22;5113106;28;20189;-44
2023/06/27 01:43:29;;;;;;;5.77;5.27;;;;;;;18.19;100.00;94553.44;5113517;28;20245;-43
2023/06/27 01:45:56;;;;;;;7.07;5.13;;;;;;;18.19;100.00;94563.00;5113269;28;20292;-45
2023/06/27 01:48:25;;;;;;;7.00;5.17;;;;;;;18.17;100.00;94552.00;5113340;28;20189;-43
2023/06/27 01:50:54;;;;;;;5.60;5.10;;;;;;;18.16;100.00;94550.41;5112782;28;20583;-44
2023/06/27 01:53:21;;;;;;;5.97;5.23;;;;;;;18.13;100.00;94551.59;5113105;28;20192;-44
2023/06/27 01:55:48;;;;;;;6.97;5.00;;;;;;;18.13;100.00;94548.19;5113023;28;20567;-43
2023/06/27 01:58:16;;;;;;;5.93;4.97;;;;;;;18.12;100.00;94549.97;5113102;28;20197;-44
2023/06/27 02:00:43;;;;;;;6.00;4.77;;;;;;;18.11;100.00;94550.97;5112960;28;20227;-43
2023/06/27 02:03:10;;;;;;;6.07;5.50;;;;;;;18.09;100.00;94547.78;5112450;28;20223;-44
2023/06/27 02:05:37;;;;;;;8.10;5.67;;;;;;;18.06;100.00;94545.56;5112769;28;20185;-44
2023/06/27 02:08:04;;;;;;;6.80;5.50;;;;;;;18.04;100.00;94545.75;5112420;28;20536;-47
2023/06/27 02:10:31;;;;;;;7.87;5.10;;;;;;;18.04;100.00;94558.69;5112521;28;20192;-44
2023/06/27 02:12:57;;;;;;;6.47;4.97;;;;;;;18.02;100.00;94552.09;5112446;28;20224;-44
2023/06/27 02:15:25;;;;;;;6.13;5.53;;;;;;;18.04;100.00;94560.47;5112937;28;20568;-44
2023/06/27 02:17:52;;;;;;;8.13;5.60;;;;;;;17.98;100.00;94564.63;5112485;28;20222;-45
2023/06/27 02:20:20;;;;;;;6.20;5.60;;;;;;;17.94;100.00;94555.63;5112363;28;20680;-45
2023/06/27 02:22:47;;;;;;;13.00;5.33;;;;;;;17.92;100.00;94554.19;5112130;28;20238;-44
2023/06/27 02:25:14;;;;;;;5.63;5.07;;;;;;;17.89;100.00;94557.97;5112718;28;20181;-45
2023/06/27 02:27:40;;;;;;;8.23;5.37;;;;;;;17.74;100.00;94533.94;5112097;28;20225;-44
2023/06/27 02:30:08;;;;;;;7.77;5.70;;;;;;;17.86;100.00;94558.34;5112525;28;20200;-44
2023/06/27 02:32:36;;;;;;;6.97;5.13;;;;;;;17.85;100.00;94561.13;5112273;28;20225;-44
2023/06/27 02:35:03;;;;;;;6.20;5.60;;;;;;;17.83;100.00;94552.72;5112176;28;20664;-44
2023/06/27 02:37:30;;;;;;;6.37;5.20;;;;;;;17.84;100.00;94554.34;5112099;28;20638;-43
2023/06/27 02:39:57;;;;;;;7.67;5.43;;;;;;;17.76;100.00;94547.50;5111706;28;20193;-44
2023/06/27 02:42:24;;;;;;;6.43;5.40;;;;;;;17.76;100.00;94563.81;5112293;28;20264;-43
2023/06/27 02:44:50;;;;;;;6.20;5.60;;;;;;;17.63;100.00;94537.81;5112035;28;20193;-45
2023/06/27 02:47:19;;;;;;;6.13;5.53;;;;;;;17.78;100.00;94561.84;5112368;28;20192;-44
2023/06/27 02:49:47;;;;;;;7.50;6.20;;;;;;;17.77;100.00;94555.06;5112188;28;20181;-45
2023/06/27 02:52:14;;;;;;;8.37;5.93;;;;;;;17.78;100.00;94564.41;5112230;28;20209;-45
2023/06/27 02:54:41;;;;;;;6.60;5.60;;;;;;;17.78;100.00;94554.06;5111654;28;20267;-45
2023/06/27 02:57:07;;;;;;;7.73;5.57;;;;;;;17.78;100.00;94555.88;5112294;28;20216;-44
2023/06/27 02:59:34;;;;;;;6.90;5.73;;;;;;;17.79;100.00;94555.69;5111910;28;20195;-44
2023/06/27 03:02:01;;;;;;;6.07;5.47;;;;;;;17.82;100.00;94556.31;5111964;28;20185;-45
2023/06/27 03:04:28;;;;;;;5.93;5.33;;;;;;;17.83;100.00;94560.47;5111478;28;20189;-43
2023/06/27 03:06:57;;;;;;;7.23;5.27;;;;;;;17.84;100.00;94564.69;5111922;28;20247;-44
2023/06/27 03:09:24;;;;;;;11.57;6.43;;;;;;;17.79;100.00;94562.66;5112189;28;20192;-44
2023/06/27 03:11:50;;;;;;;7.63;5.50;;;;;;;17.77;100.00;94559.44;5111471;28;20228;-44
2023/06/27 03:14:18;;;;;;;7.47;5.50;;;;;;;17.68;100.00;94548.41;5111580;28;20200;-44
2023/06/27 03:16:45;;;;;;;6.30;5.50;;;;;;;17.68;100.00;94555.34;5111244;28;20276;-44
2023/06/27 03:19:12;;;;;;;8.03;5.43;;;;;;;17.70;100.00;94561.13;5111524;28;20189;-44
2023/06/27 03:21:39;;;;;;;7.80;5.07;;;;;;;17.68;100.00;94558.75;5111029;28;20185;-45
2023/06/27 03:24:08;;;;;;;10.97;6.07;;;;;;;17.73;100.00;94561.56;5111505;28;20200;-45
2023/06/27 03:26:34;;;;;;;7.37;5.87;;;;;;;17.75;100.00;94562.22;5110986;28;20620;-45
2023/06/27 03:29:01;;;;;;;6.73;5.30;;;;;;;17.78;100.00;94561.84;5111435;28;20225;-46
2023/06/27 03:31:28;;;;;;;7.37;5.27;;;;;;;17.82;100.00;94566.66;5111044;28;20212;-44
2023/06/27 03:33:57;;;;;;;6.20;5.30;;;;;;;17.83;100.00;94560.47;5111031;28;20196;-42
2023/06/27 03:36:24;;;;;;;6.30;5.70;;;;;;;17.85;100.00;94559.31;5110670;28;20196;-45
2023/06/27 03:38:51;;;;;;;9.67;5.57;;;;;;;17.88;100.00;94553.00;5111215;28;20189;-44
2023/06/27 03:41:20;;;;;;;7.90;5.50;;;;;;;17.92;100.00;94562.78;5110555;28;20204;-44
2023/06/27 03:43:47;;;;;;;7.87;5.93;;;;;;;17.96;100.00;94561.44;5110912;28;20216;-43
2023/06/27 03:46:14;;;;;;;6.20;5.60;;;;;;;18.05;100.00;94567.28;5110870;28;20549;-44
2023/06/27 03:48:41;;;;;;;6.57;5.53;;;;;;;18.11;100.00;94571.69;5110868;28;20189;-44
2023/06/27 03:51:08;;;;;;;10.73;5.73;;;;;;;18.18;100.00;94575.13;5110793;28;20628;-46
2023/06/27 03:53:38;;;;;;;7.57;5.47;;;;;;;18.21;100.00;94563.59;5110448;28;20625;-46
2023/06/27 03:56:06;;;;;;;9.27;5.97;;;;;;;18.32;100.00;94575.25;5110800;28;20185;-45
2023/06/27 03:58:34;;;;;;;6.50;5.53;;;;;;;18.42;100.00;94571.31;5110369;28;20257;-43
2023/06/27 04:01:01;;;;;;;8.63;6.67;;;;;;;18.48;100.00;94575.75;5110861;28;20203;-45
2023/06/27 04:03:28;;;;;;;6.30;5.70;;;;;;;18.55;100.00;94583.56;5110592;28;20275;-47
2023/06/27 04:05:55;;;;;;;7.10;5.90;;;;;;;18.54;100.00;94571.59;5110550;28;20608;-45
2023/06/27 04:08:22;;;;;;;9.33;6.37;;;;;;;18.50;100.00;94560.81;5110506;28;20197;-45
2023/06/27 04:10:49;;;;;;;9.77;6.80;;;;;;;18.72;100.00;94589.28;5110690;28;20228;-45
2023/06/27 04:13:15;;;;;;;9.13;7.03;;;;;;;18.78;100.00;94581.56;5110151;28;20316;-45
2023/06/27 04:15:44;;;;;;;8.87;7.17;;;;;;;18.82;99.89;94589.72;5110307;28;20189;-45
2023/06/27 04:18:10;;;;;;;12.03;8.17;;;;;;;18.93;99.20;94601.34;5109765;28;20679;-43
2023/06/27 04:20:37;;;;;;;9.00;7.53;;;;;;;18.99;98.64;94601.38;5110312;28;20649;-47
2023/06/27 04:23:04;;;;;;;10.77;7.40;;;;;;;19.06;98.19;94604.00;5110608;28;20185;-46
2023/06/27 04:25:33;;;;;;;9.23;7.37;;;;;;;19.13;97.86;94598.84;5110144;28;20185;-46
2023/06/27 04:28:00;;;;;;;11.33;7.07;;;;;;;19.23;97.68;94600.09;5110206;28;20312;-45
2023/06/27 04:30:27;;;;;;;12.93;7.70;;;;;;;19.07;97.17;94561.53;5109955;28;20307;-45
2023/06/27 04:32:55;;;;;;;9.80;7.27;;;;;;;19.38;97.13;94593.97;5110274;28;20253;-44
2023/06/27 04:35:23;;;;;;;7.27;6.50;;;;;;;19.46;96.41;94599.00;5110619;28;20564;-44
2023/06/27 04:37:51;;;;;;;8.60;7.60;;;;;;;19.55;96.00;94598.63;5111131;28;20200;-45
2023/06/27 04:40:18;;;;;;;13.97;8.57;;;;;;;19.55;95.31;94580.44;5110522;28;20182;-43
2023/06/27 04:42:45;;;;;;;11.57;8.17;;;;;;;19.70;95.01;94588.13;5110718;28;20185;-45
2023/06/27 04:45:12;;;;;;;8.02;7.22;;;;;;;19.80;94.53;94600.72;5110163;28;20193;-44
2023/06/27 04:47:39;;;;;;;12.50;8.00;;;;;;;19.70;94.60;94569.97;5110554;28;20177;-46
2023/06/27 04:50:08;;;;;;;15.73;7.90;;;;;;;19.93;94.21;94605.13;5110014;28;20636;-47
2023/06/27 04:52:34;;;;;;;9.27;7.77;;;;;;;19.94;93.41;94604.91;5110292;28;20315;-46
2023/06/27 04:55:01;;;;;;;13.38;9.02;;;;;;;19.84;94.04;94580.34;5109674;28;20192;-45
2023/06/27 04:57:28;;;;;;;10.73;8.38;;;;;;;19.97;94.01;94601.94;5109968;28;20204;-44
2023/06/27 04:59:55;;;;;;;12.07;8.70;;;;;;;20.00;94.23;94603.34;5109758;28;20246;-45
2023/06/27 05:02:21;;;;;;;15.18;8.93;;;;;;;19.95;93.95;94600.56;5109919;28;20193;-49
2023/06/27 05:04:49;;;;;;;16.30;9.35;;;;;;;19.96;94.06;94602.94;5109862;28;20193;-46
2023/06/27 05:07:17;;;;;;;12.40;8.73;;;;;;;19.98;93.63;94608.72;5109977;28;20190;-44
2023/06/27 05:09:44;;;;;;;13.15;8.07;;;;;;;19.91;93.97;94602.75;5110698;28;20196;-44
2023/06/27 05:12:11;;;;;;;9.95;8.95;;;;;;;19.92;93.96;94586.16;5113500;28;20345;-45
2023/06/27 05:14:37;;;;;;;12.07;8.45;;;;;;;20.24;93.83;94605.34;5113874;28;20588;-45
2023/06/27 05:17:04;;;;;;;9.02;8.13;;;;;;;20.32;92.88;94572.41;5113543;28;20181;-45
2023/06/27 05:19:31;;;;;;;12.65;8.75;;;;;;;20.85;91.59;94606.94;5114098;28;20196;-44
2023/06/27 05:21:58;;;;;;;11.20;8.68;;;;;;;21.16;89.51;94610.69;5113552;28;20682;-45
2023/06/27 05:24:27;;;;;;;13.40;8.43;;;;;;;21.33;88.08;94605.81;5113987;28;20181;-45
2023/06/27 05:26:53;;;;;;;15.82;9.02;;;;;;;21.76;87.05;94613.84;5113413;28;20196;-44
2023/06/27 05:29:20;;;;;;;13.93;9.15;;;;;;;22.31;85.80;94613.31;5113114;28;20193;-45
2023/06/27 05:31:47;;;;;;;10.13;9.07;;;;;;;22.80;83.02;94609.91;5113492;28;20188;-47
2023/06/27 05:34:14;;;;;;;11.93;9.38;;;;;;;23.31;80.25;94621.81;5113603;28;20224;-45
2023/06/27 05:36:40;;;;;;;12.68;8.88;;;;;;;23.53;77.96;94617.78;5113898;28;20185;-45
2023/06/27 05:39:07;;;;;;;13.07;9.52;;;;;;;23.66;76.14;94616.84;5113930;28;20185;-45
2023/06/27 05:41:35;;;;;;;10.18;8.25;;;;;;;23.78;76.05;94617.66;5113598;28;20193;-46
2023/06/27 05:44:02;;;;;;;10.63;8.60;;;;;;;23.88;75.47;94614.53;5113222;28;20197;-47
2023/06/27 05:46:34;;;;;;;14.40;7.55;;;;;;;24.20;72.97;94617.69;5113358;28;20197;-46
2023/06/27 05:49:02;;;;;;;8.38;7.03;;;;;;;24.49;70.50;94610.84;5113278;28;20177;-46
2023/06/27 05:51:29;;;;;;;9.82;7.07;;;;;;;24.70;69.75;94608.69;5113548;28;20181;-45
2023/06/27 05:53:55;;;;;;;10.02;7.97;;;;;;;24.78;68.97;94618.78;5113363;28;20216;-46
2023/06/27 05:56:22;;;;;;;13.38;7.95;;;;;;;24.65;68.81;94617.19;5113035;28;20190;-47
2023/06/27 05:58:50;;;;;;;12.18;8.05;;;;;;;24.66;69.46;94623.25;5112869;28;20197;-44
2023/06/27 06:01:17;;;;;;;10.85;8.38;;;;;;;24.82;69.18;94619.94;5112786;28;20189;-44
2023/06/27 06:03:44;;;;;;;10.38;7.60;;;;;;;25.12;68.26;94626.88;5112870;28;20683;-45
2023/06/27 06:06:11;;;;;;;8.00;7.20;;;;;;;25.17;66.67;94616.53;5113232;28;20212;-46
2023/06/27 06:08:38;;;;;;;10.75;7.00;;;;;;;25.10;66.55;94619.28;5112952;28;20227;-45
2023/06/27 06:11:05;;;;;;;12.45;6.80;;;;;;;25.12;67.12;94619.03;5112973;28;20192;-46
2023/06/27 06:13:31;;;;;;;9.32;7.43;;;;;;;25.24;66.90;94623.22;5112630;28;20249;-45
2023/06/27 06:16:00;;;;;;;10.25;7.43;;;;;;;25.33;66.43;94625.50;5112657;28;20197;-46
2023/06/27 06:18:26;;;;;;;9.88;6.50;;;;;;;25.50;66.36;94613.28;5113024;28;20185;-46
2023/06/27 06:20:53;;;;;;;10.32;6.22;;;;;;;25.81;65.86;94595.53;5112519;28;20201;-47
2023/06/27 06:23:20;;;;;;;11.57;7.22;;;;;;;26.22;63.80;94618.03;5113022;28;20245;-44
2023/06/27 06:25:47;;;;;;;8.00;6.43;;;;;;;26.37;63.58;94614.84;5112493;28;20201;-44
2023/06/27 06:28:13;;;;;;;12.95;7.05;;;;;;;26.69;63.02;94615.13;5112365;28;20730;-44
2023/06/27 06:30:40;;;;;;;8.38;6.32;;;;;;;26.98;61.92;94613.94;5112398;28;20291;-46
2023/06/27 06:33:08;;;;;;;6.68;5.70;;;;;;;27.22;61.69;94617.19;5112717;28;20220;-45
2023/06/27 06:35:35;;;;;;;9.80;5.63;;;;;;;27.38;59.84;94612.16;5112166;28;20193;-45
2023/06/27 06:38:02;;;;;;;8.43;5.60;;;;;;;27.59;58.64;94613.97;5112435;28;20579;-44
2023/06/27 06:40:30;;;;;;;6.47;5.55;;;;;;;27.78;58.59;94611.06;5112327;28;20200;-45
2023/06/27 06:42:57;;;;;;;7.13;5.75;;;;;;;27.86;57.23;94605.34;5112148;28;20193;-44
2023/06/27 06:45:24;;;;;;;8.52;6.38;;;;;;;27.79;56.93;94610.78;5112066;28;20189;-46
2023/06/27 06:47:51;;;;;;;7.28;5.65;;;;;;;27.61;58.01;94598.75;5112357;28;20231;-47
2023/06/27 06:50:20;;;;;;;9.48;6.28;;;;;;;27.53;58.12;94593.94;5112072;28;20571;-44
2023/06/27 06:52:47;;;;;;;6.88;5.65;;;;;;;27.42;58.07;94608.78;5112080;28;20389;-47
2023/06/27 06:55:13;;;;;;;8.10;6.20;;;;;;;27.43;58.63;94602.50;5112097;28;20193;-47
2023/06/27 06:57:40;;;;;;;8.95;6.47;;;;;;;27.46;58.56;94601.19;5111739;28;20196;-45
2023/06/27 07:00:08;;;;;;;6.60;5.90;;;;;;;27.43;58.55;94602.50;5111944;28;20583;-46
2023/06/27 07:02:35;;;;;;;7.25;5.57;;;;;;;27.39;58.71;94597.97;5111565;28;20267;-46
2023/06/27 07:05:02;;;;;;;7.90;5.00;;;;;;;27.41;58.85;94596.66;5111702;28;20645;-46
2023/06/27 07:07:30;;;;;;;6.57;5.28;;;;;;;27.41;58.70;94601.94;5111702;28;20203;-46
2023/06/27 07:09:57;;;;;;;6.35;5.75;;;;;;;27.49;58.63;94605.97;5111621;28;20649;-46
2023/06/27 07:12:24;;;;;;;5.85;5.35;;;;;;;27.50;58.55;94597.03;5111333;28;20193;-46
2023/06/27 07:14:50;;;;;;;9.23;6.15;;;;;;;27.59;58.47;94598.22;5111328;28;20192;-46
2023/06/27 07:17:17;;;;;;;6.15;5.55;;;;;;;27.56;58.44;94590.03;5111577;28;20189;-45
2023/06/27 07:19:44;;;;;;;8.45;5.65;;;;;;;27.60;57.80;94601.63;5111520;28;20189;-46
2023/06/27 07:22:11;;;;;;;8.88;6.00;;;;;;;27.60;57.89;94599.00;5110960;28;20193;-44
2023/06/27 07:24:39;;;;;;;8.68;6.05;;;;;;;27.65;58.69;94597.22;5111312;28;20226;-46
2023/06/27 07:27:06;;;;;;;9.15;5.97;;;;;;;27.82;56.64;94605.06;5111547;28;20270;-47
2023/06/27 07:29:33;;;;;;;7.45;5.30;;;;;;;27.63;57.44;94577.47;5110824;28;20715;-44
2023/06/27 07:32:00;;;;;;;6.47;5.53;;;;;;;27.72;56.94;94584.72;5111041;28;20196;-46
2023/06/27 07:34:27;;;;;;;7.53;5.20;;;;;;;27.83;57.41;94601.38;5110676;28;20296;-46
2023/06/27 07:36:54;;;;;;;10.40;5.93;;;;;;;27.96;57.09;94605.44;5111331;28;20228;-45
2023/06/27 07:39:20;;;;;;;5.85;4.72;;;;;;;28.21;56.64;94599.63;5110954;28;20246;-45
2023/06/27 07:41:49;;;;;;;7.03;5.43;;;;;;;28.47;56.29;94598.03;5111058;28;20196;-45
2023/06/27 07:44:16;;;;;;;6.68;5.65;;;;;;;28.65;55.43;94604.75;5110720;28;20754;-46
2023/06/27 07:46:43;;;;;;;7.63;5.45;;;;;;;28.81;55.10;94600.38;5111249;28;20197;-46
2023/06/27 07:49:10;;;;;;;7.88;5.28;;;;;;;29.07;53.63;94602.16;5111011;28;20181;-45
2023/06/27 07:51:37;;;;;;;8.85;5.82;;;;;;;28.93;53.68;94596.50;5110944;28;20289;-45
2023/06/27 07:54:04;;;;;;;8.52;6.15;;;;;;;28.86;54.54;94601.19;5110746;28;20212;-44
2023/06/27 07:56:32;;;;;;;6.70;5.32;;;;;;;28.89;53.77;94603.34;5110817;28;20193;-45
2023/06/27 07:59:00;;;;;;;7.13;5.38;;;;;;;29.07;53.80;94604.78;5110302;28;20216;-45
2023/06/27 08:01:26;;;;;;;7.05;4.97;;;;;;;29.23;52.79;94601.19;5110830;28;20211;-46
2023/06/27 08:03:53;;;;;;;5.88;5.20;;;;;;;29.34;51.55;94591.47;5110747;28;20195;-44
2023/06/27 08:06:20;;;;;;;7.53;5.35;;;;;;;29.49;50.21;94596.00;5110374;28;20631;-45
2023/06/27 08:08:47;;;;;;;8.98;6.03;;;;;;;29.46;52.13;94605.22;5111060;28;20204;-46
2023/06/27 08:11:14;;;;;;;8.23;5.65;;;;;;;29.44;51.87;94596.75;5110490;28;20192;-45
2023/06/27 08:13:42;;;;;;;5.65;4.78;;;;;;;29.32;50.54;94596.22;5110371;28;20220;-45
2023/06/27 08:16:10;;;;;;;5.80;5.30;;;;;;;29.38;50.41;94597.81;5110872;28;20640;-45
2023/06/27 08:18:37;;;;;;;5.28;4.78;;;;;;;29.55;50.45;94594.19;5110640;28;20196;-45
2023/06/27 08:21:05;;;;;;;4.93;4.47;;;;;;;29.69;48.97;94603.22;5075409;28;20204;-45
2023/06/27 08:23:32;;;;;;;4.68;4.25;;;;;;;29.72;48.40;94610.59;5110927;28;20181;-47
2023/06/27 08:25:59;;;;;;;4.70;4.30;;;;;;;29.78;46.73;94603.50;5110423;28;20276;-45
2023/06/27 08:28:27;;;;;;;4.88;4.47;;;;;;;29.94;46.96;94607.75;5110288;28;20286;-44
2023/06/27 08:30:55;;;;;;;4.90;4.40;;;;;;;30.13;46.60;94600.91;5110205;28;20192;-44
2023/06/27 08:33:25;;;;;;;5.30;4.78;;;;;;;30.20;45.18;94580.38;5110362;28;20266;-45
2023/06/27 08:35:53;;;;;;;6.85;4.22;;;;;;;30.23;45.90;94595.72;5110394;28;20204;-45
2023/06/27 08:38:20;;;;;;;7.20;4.82;;;;;;;30.22;46.71;94594.13;5110439;28;20679;-44
2023/06/27 08:40:53;;;;;;;5.60;4.57;;;;;;;30.34;46.90;94598.34;5110281;28;20181;-46
2023/06/27 08:43:24;;;;;;;4.60;4.20;;;;;;;30.40;46.06;94589.38;5110189;28;20204;-46
2023/06/27 08:45:53;;;;;;;5.03;3.78;;;;;;;30.41;43.76;94583.81;5096299;28;20208;-45
2023/06/27 08:48:21;;;;;;;8.45;4.18;;;;;;;30.50;43.92;94597.28;5114514;28;20189;-47
2023/06/27 08:50:53;;;;;;;4.95;4.13;;;;;;;30.49;44.47;94591.22;5114396;28;20212;-45
2023/06/27 08:53:22;;;;;;;6.30;4.63;;;;;;;30.50;44.96;94592.00;5114086;28;20224;-45
2023/06/27 08:55:58;;;;;;;5.13;4.40;;;;;;;30.50;44.48;94581.44;5115048;28;20177;-44
2023/06/27 08:58:32;;;;;;;4.60;4.20;;;;;;;30.52;44.91;94589.88;5114721;28;20216;-45
2023/06/27 09:00:59;;;;;;;4.20;3.80;;;;;;;30.51;44.79;94584.88;5095724;28;20203;-45
2023/06/27 09:03:27;;;;;;;4.82;3.90;;;;;;;30.52;44.46;94586.44;5114135;28;20193;-46
2023/06/27 09:05:56;;;;;;;4.65;3.83;;;;;;;30.52;43.45;94586.44;5114199;28;20184;-45
2023/06/27 09:08:23;;;;;;;6.90;4.35;;;;;;;30.53;43.65;94586.22;5113846;28;20200;-46
2023/06/27 09:10:50;;;;;;;3.70;3.40;;;;;;;30.52;43.99;94584.59;5114380;28;20216;-47
2023/06/27 09:13:18;;;;;;;4.13;3.78;;;;;;;30.55;43.57;94589.34;5095703;28;20188;-46
2023/06/27 09:15:45;;;;;;;6.53;4.38;;;;;;;30.42;43.65;94581.97;5113965;28;20709;-45
2023/06/27 09:18:12;;;;;;;4.18;3.42;;;;;;;30.39;43.40;94585.94;5113887;28;20271;-45
2023/06/27 09:20:39;;;;;;;5.07;3.75;;;;;;;30.49;43.80;94579.88;5113784;28;20181;-44
2023/06/27 09:23:08;;;;;;;6.93;3.72;;;;;;;30.62;44.21;94574.06;5113403;28;20699;-45
2023/06/27 09:25:34;;;;;;;5.05;4.65;;;;;;;30.71;44.41;94572.44;5113711;28;20666;-47
2023/06/27 09:28:15;;;;;;;4.63;4.22;;;;;;;30.78;44.06;94571.41;5113757;28;20641;-43
2023/06/27 09:30:52;;;;;;;5.57;3.72;;;;;;;30.63;44.03;94578.28;5113748;28;20283;-46
2023/06/27 09:33:19;;;;;;;4.78;4.15;;;;;;;30.49;44.49;94582.50;5094862;28;20247;-45
2023/06/27 09:35:48;;;;;;;4.90;4.40;;;;;;;30.51;44.94;94582.25;5113460;28;20232;-44
2023/06/27 09:38:16;;;;;;;4.40;4.00;;;;;;;30.61;45.47;94579.56;5113003;28;20224;-44
2023/06/27 09:40:43;;;;;;;4.13;3.70;;;;;;;30.69;45.88;94579.03;5113560;28;20193;-44
2023/06/27 09:43:12;;;;;;;4.35;3.95;;;;;;;30.79;44.01;94584.34;5113286;28;20679;-44
2023/06/27 09:45:38;;;;;;;4.22;3.72;;;;;;;30.76;43.78;94576.97;5113252;28;20203;-44
2023/06/27 09:48:09;;;;;;;4.07;3.70;;;;;;;30.74;44.22;94579.06;5113414;28;20193;-45
2023/06/27 09:50:36;;;;;;;3.38;3.08;;;;;;;30.75;44.45;94579.88;5113977;28;20541;-45
2023/06/27 09:53:04;;;;;;;6.78;3.63;;;;;;;30.65;42.37;94578.78;5113408;28;20222;-45
2023/06/27 09:55:32;;;;;;;3.90;3.50;;;;;;;30.53;41.52;94569.56;5112890;28;20224;-44
2023/06/27 09:57:59;;;;;;;3.65;3.35;;;;;;;30.44;41.44;94580.66;5112773;28;20182;-43
2023/06/27 10:00:27;;;;;;;4.60;3.20;;;;;;;30.48;43.98;94583.53;5113164;28;20197;-43
2023/06/27 10:02:55;;;;;;;4.85;3.50;;;;;;;30.41;41.94;94564.56;5112639;28;20272;-44
2023/06/27 10:05:23;;;;;;;5.82;3.78;;;;;;;30.46;41.26;94586.47;5112975;28;20196;-46
2023/06/27 10:07:51;;;;;;;3.53;3.05;;;;;;;30.40;42.52;94582.25;5113156;28;20208;-44
2023/06/27 10:10:20;;;;;;;5.13;3.25;;;;;;;30.41;42.50;94578.56;5112715;28;20201;-43
2023/06/27 10:12:50;;;;;;;3.30;3.00;;;;;;;30.47;41.18;94577.47;5112935;28;20193;-44
2023/06/27 10:15:18;;;;;;;3.85;3.55;;;;;;;30.31;40.62;94578.56;5094770;28;20243;-43
2023/06/27 10:17:46;;;;;;;4.45;3.83;;;;;;;30.12;42.14;94567.69;5112619;28;20692;-44
2023/06/27 10:20:14;;;;;;;4.93;3.42;;;;;;;30.19;40.05;94575.38;5112397;28;20613;-45
2023/06/27 10:22:44;;;;;;;3.65;3.35;;;;;;;30.15;40.96;94569.84;5112696;28;20189;-44
2023/06/27 10:25:12;;;;;;;3.47;3.17;;;;;;;30.00;41.36;94567.94;5112465;28;20216;-45
2023/06/27 10:27:42;;;;;;;4.07;3.35;;;;;;;29.88;39.97;94570.06;5112688;28;20247;-46
2023/06/27 10:30:25;;;;;;;4.03;3.55;;;;;;;29.82;39.97;94570.28;5112258;28;20193;-45
2023/06/27 10:32:53;;;;;;;3.67;3.38;;;;;;;29.79;39.95;94570.81;5112958;28;20181;-46
2023/06/27 10:35:28;;;;;;;4.18;3.60;;;;;;;29.82;38.60;94554.47;5112539;28;20300;-45
2023/06/27 10:38:08;;;;;;;4.63;3.65;;;;;;;29.78;38.74;94556.84;5112854;28;20185;-44
2023/06/27 10:41:09;;;;;;;3.83;3.47;;;;;;;29.85;39.10;94561.88;5112224;28;20193;-47
2023/06/27 10:43:37;;;;;;;3.83;3.53;;;;;;;29.88;38.78;94556.06;5112003;28;20549;-47
2023/06/27 10:46:09;;;;;;;4.03;3.30;;;;;;;29.89;39.25;94555.03;5112007;28;20533;-46
2023/06/27 10:48:49;;;;;;;3.78;3.30;;;;;;;29.88;38.09;94553.41;5111786;28;20196;-44
2023/06/27 10:51:18;;;;;;;5.28;3.58;;;;;;;29.66;37.99;94551.00;5112702;28;20192;-45
2023/06/27 10:54:11;;;;;;;3.67;3.38;;;;;;;29.53;39.24;94554.09;5112189;28;20668;-45
2023/06/27 10:56:40;;;;;;;4.65;3.97;;;;;;;29.51;41.79;94549.09;5111928;28;20656;-47
2023/06/27 10:59:10;;;;;;;4.25;3.90;;;;;;;29.50;41.87;94552.78;5112089;28;20189;-45
2023/06/27 11:01:43;;;;;;;4.35;3.95;;;;;;;29.54;42.44;94545.97;5111609;28;20180;-45
2023/06/27 11:04:21;;;;;;;4.40;3.97;;;;;;;29.69;41.37;94545.22;5112246;28;20266;-45
2023/06/27 11:06:48;;;;;;;4.97;3.83;;;;;;;29.66;41.48;94549.19;5111333;28;20575;-46
2023/06/27 11:09:16;;;;;;;4.10;3.40;;;;;;;29.65;41.23;94544.94;5111459;28;20185;-46
2023/06/27 11:11:54;;;;;;;5.43;4.07;;;;;;;29.73;41.86;94546.28;5111611;28;20185;-46
2023/06/27 11:14:35;;;;;;;4.90;4.50;;;;;;;29.72;41.96;94547.34;5111421;28;20315;-44
2023/06/27 11:17:04;;;;;;;5.30;3.85;;;;;;;29.72;41.36;94540.22;5111234;28;20234;-44
2023/06/27 11:19:32;;;;;;;4.40;3.95;;;;;;;29.76;40.78;94537.84;5111646;28;20277;-45
2023/06/27 11:22:00;;;;;;;4.32;3.92;;;;;;;29.86;40.33;94531.81;5111365;28;20196;-45
2023/06/27 11:24:29;;;;;;;4.32;3.92;;;;;;;29.91;42.40;94539.72;5111680;28;20188;-43
2023/06/27 11:26:56;;;;;;;5.63;3.80;;;;;;;29.94;39.80;94534.72;5110988;28;20193;-43
2023/06/27 11:29:23;;;;;;;4.85;3.85;;;;;;;29.87;39.21;94531.53;5111404;28;20193;-46
2023/06/27 11:31:50;;;;;;;4.60;4.00;;;;;;;29.78;39.38;94525.19;5111199;28;20199;-45
2023/06/27 11:34:19;;;;;;;4.03;3.65;;;;;;;29.72;38.63;94531.53;5111381;28;20211;-44